Time;durP1;ratioP1;P1;durP2;ratioP2;P2;SDS_P1;SDS_P2;PMS_P1;PMS_P2;Temp;Humidity;BMP_temperature;BMP_pressure;BME280_temperature;BME280_humidity;BME280_pressure;Samples;Min_cycle;Max_cycle;Signal;HPM_P1;HPM_P2
2023/05/05 00:01:48;;;;;;;0.10;0.10;;;;;;;9.15;100.00;100336.47;4892656;29;20127;-89
2023/05/05 00:04:16;;;;;;;0.52;0.47;;;;;;;9.08;100.00;100333.81;4885416;29;20414;-87
2023/05/05 00:06:42;;;;;;;0.30;0.30;;;;;;;9.13;100.00;100336.09;4890856;29;20057;-87
2023/05/05 00:09:07;;;;;;;1.10;1.08;;;;;;;9.10;100.00;100336.16;4905787;29;20047;-87
2023/05/05 00:11:33;;;;;;;0.22;0.22;;;;;;;9.08;100.00;100331.03;4897368;29;20723;-87
2023/05/05 00:13:58;;;;;;;0.68;0.57;;;;;;;9.01;100.00;100328.41;4883206;29;20052;-87
2023/05/05 00:16:24;;;;;;;0.80;0.70;;;;;;;8.91;100.00;100312.72;4898468;29;20052;-86
2023/05/05 00:18:49;;;;;;;2.17;1.38;;;;;;;8.98;100.00;100329.22;4897636;29;20055;-87
2023/05/05 00:21:15;;;;;;;0.10;0.10;;;;;;;8.93;100.00;100332.47;4889039;29;20040;-87
2023/05/05 00:23:40;;;;;;;0.93;0.63;;;;;;;8.92;100.00;100325.38;4921884;29;20127;-93
2023/05/05 00:26:06;;;;;;;0.70;0.70;;;;;;;8.79;100.00;100322.41;4872410;29;20037;-92
2023/05/05 00:28:31;;;;;;;1.13;1.02;;;;;;;8.83;100.00;100322.34;4908243;29;20056;-93
2023/05/05 00:30:57;;;;;;;1.73;0.98;;;;;;;8.71;100.00;100314.63;4888165;29;20048;-93
2023/05/05 00:33:23;;;;;;;0.45;0.45;;;;;;;8.72;100.00;100321.72;4908604;29;20088;-92
2023/05/05 00:35:48;;;;;;;0.35;0.35;;;;;;;8.73;100.00;100323.28;4909032;29;20048;-94
2023/05/05 00:38:14;;;;;;;0.35;0.35;;;;;;;8.71;100.00;100331.22;4924966;29;20040;-93
2023/05/05 00:40:40;;;;;;;0.20;0.20;;;;;;;8.67;100.00;100336.00;4887539;29;20178;-93
2023/05/05 00:43:06;;;;;;;0.35;0.35;;;;;;;8.63;100.00;100321.44;4874393;29;20071;-92
2023/05/05 00:45:32;;;;;;;0.80;0.20;;;;;;;8.56;100.00;100313.25;4920499;29;20411;-93
2023/05/05 00:47:58;;;;;;;0.40;0.40;;;;;;;8.63;100.00;100324.22;4921707;29;20051;-92
2023/05/05 00:50:29;;;;;;;0.10;0.10;;;;;;;8.62;100.00;100325.41;4901011;29;20061;-92
2023/05/05 00:52:57;;;;;;;1.48;1.38;;;;;;;8.58;100.00;100332.97;4900428;29;20126;-92
2023/05/05 00:55:23;;;;;;;1.10;0.80;;;;;;;8.47;100.00;100293.63;4895933;29;20040;-94
2023/05/05 00:57:49;;;;;;;0.40;0.38;;;;;;;8.47;100.00;100311.00;4908301;29;20044;-92
2023/05/05 01:00:15;;;;;;;0.95;0.77;;;;;;;8.40;100.00;100317.44;4888864;29;20044;-93
2023/05/05 01:02:41;;;;;;;0.25;0.25;;;;;;;8.45;100.00;100318.94;4894411;29;20060;-92
2023/05/05 01:05:08;;;;;;;0.00;0.00;;;;;;;8.47;100.00;100326.81;4893271;29;20514;-94
2023/05/05 01:08:12;;;;;;;0.00;0.00;;;;;;;8.47;100.00;100326.81;4896579;29;20045;-93
2023/05/05 01:10:45;;;;;;;1.27;0.32;;;;;;;8.48;100.00;100317.31;4875105;29;20089;-93
2023/05/05 01:13:35;;;;;;;0.32;0.32;;;;;;;8.51;100.00;100322.81;4891533;29;20104;-93
2023/05/05 01:16:05;;;;;;;0.60;0.60;;;;;;;8.37;100.00;100307.19;4924975;29;20045;-93
2023/05/05 01:18:46;;;;;;;0.65;0.65;;;;;;;8.42;100.00;100320.53;4914596;29;20052;-92
2023/05/05 01:21:16;;;;;;;0.38;0.30;;;;;;;8.38;100.00;100311.50;4910183;29;20135;-92
2023/05/05 01:23:53;;;;;;;1.35;0.85;;;;;;;8.33;100.00;100317.50;4901154;29;20112;-93
2023/05/05 01:26:37;;;;;;;0.00;0.00;;;;;;;8.32;100.00;100315.97;4913670;29;20132;-92
2023/05/05 01:29:28;;;;;;;0.10;0.10;;;;;;;8.20;100.00;100310.94;4894702;29;20052;-92
2023/05/05 01:31:56;;;;;;;0.20;0.20;;;;;;;8.21;100.00;100315.25;4886232;29;20135;-93
2023/05/05 01:34:34;;;;;;;0.90;0.82;;;;;;;8.09;100.00;100306.75;4904818;29;20052;-93
2023/05/05 01:37:12;;;;;;;0.15;0.15;;;;;;;8.15;100.00;100314.16;4919378;29;20087;-92
2023/05/05 01:39:39;;;;;;;0.85;0.85;;;;;;;8.10;100.00;100313.81;4921442;29;20039;-93
2023/05/05 01:42:08;;;;;;;0.20;0.20;;;;;;;8.12;100.00;100306.72;4914177;29;20186;-94
2023/05/05 01:44:35;;;;;;;0.13;0.13;;;;;;;8.06;100.00;100302.81;4913908;29;20093;-92
2023/05/05 01:47:02;;;;;;;0.30;0.30;;;;;;;8.11;100.00;100313.44;4913123;29;20064;-94
2023/05/05 01:49:28;;;;;;;2.53;1.33;;;;;;;8.04;100.00;100305.22;4894238;29;20044;-92
2023/05/05 01:51:55;;;;;;;0.30;0.30;;;;;;;8.05;100.00;100315.06;4889042;29;20046;-94
2023/05/05 01:54:23;;;;;;;0.38;0.38;;;;;;;8.00;100.00;100310.00;4893425;29;20091;-93
2023/05/05 01:56:50;;;;;;;0.10;0.10;;;;;;;8.04;100.00;100312.72;4884469;29;20052;-94
2023/05/05 01:59:16;;;;;;;0.13;0.13;;;;;;;7.91;100.00;100301.44;4872672;29;20498;-93
2023/05/05 02:01:45;;;;;;;1.02;0.90;;;;;;;7.99;100.00;100308.44;4887825;29;20127;-92
2023/05/05 02:04:13;;;;;;;0.10;0.10;;;;;;;7.97;100.00;100310.81;4881649;29;20087;-94
2023/05/05 02:06:39;;;;;;;0.43;0.30;;;;;;;7.88;100.00;100303.06;4902109;29;20519;-94
2023/05/05 02:09:05;;;;;;;0.85;0.85;;;;;;;7.85;100.00;100303.84;4878427;29;20059;-93
2023/05/05 02:11:31;;;;;;;0.82;0.80;;;;;;;7.85;100.00;100303.84;4890363;29;20064;-94
2023/05/05 02:13:57;;;;;;;1.45;0.93;;;;;;;7.89;100.00;100309.34;4912257;29;20487;-94
2023/05/05 02:16:23;;;;;;;0.55;0.40;;;;;;;7.89;100.00;100301.84;4899117;29;20038;-94
2023/05/05 02:18:49;;;;;;;2.40;1.48;;;;;;;7.77;100.00;100273.97;4899846;29;20068;-92
2023/05/05 02:21:16;;;;;;;0.63;0.63;;;;;;;7.90;100.00;100308.16;4880540;29;20076;-92
2023/05/05 02:23:45;;;;;;;0.30;0.30;;;;;;;7.83;100.00;100297.97;4909414;29;20046;-93
2023/05/05 02:26:11;;;;;;;0.63;0.35;;;;;;;7.71;100.00;100292.19;4893308;29;20112;-93
2023/05/05 02:29:08;;;;;;;0.40;0.40;;;;;;;7.77;100.00;100307.09;4905344;29;20037;-92
2023/05/05 02:31:40;;;;;;;0.00;0.00;;;;;;;7.73;100.00;100301.63;4897240;29;20052;-92
2023/05/05 02:34:07;;;;;;;0.47;0.47;;;;;;;7.74;100.00;100305.16;4876234;29;20052;-93
2023/05/05 02:36:37;;;;;;;0.30;0.30;;;;;;;7.59;100.00;100273.41;4879064;29;20228;-92
2023/05/05 02:39:13;;;;;;;0.50;0.50;;;;;;;7.65;100.00;100286.34;4895284;29;20053;-92
2023/05/05 02:41:41;;;;;;;0.57;0.57;;;;;;;7.71;100.00;100292.97;4882646;29;20109;-93
2023/05/05 02:44:16;;;;;;;1.17;0.82;;;;;;;7.59;100.00;100265.13;4887160;29;20036;-92
2023/05/05 02:46:41;;;;;;;0.55;0.55;;;;;;;7.61;100.00;100282.03;4882492;29;20048;-92
2023/05/05 02:49:07;;;;;;;0.15;0.15;;;;;;;7.64;100.00;100292.28;4879049;29;20044;-93
2023/05/05 02:51:35;;;;;;;1.25;1.15;;;;;;;7.64;100.00;100286.75;4895629;29;20044;-94
2023/05/05 02:54:05;;;;;;;2.00;0.88;;;;;;;7.65;100.00;100282.78;4896444;29;20048;-94
2023/05/05 02:56:42;;;;;;;0.50;0.50;;;;;;;7.67;100.00;100280.41;4901565;29;20463;-93
2023/05/05 02:59:11;;;;;;;0.45;0.45;;;;;;;7.68;100.00;100284.75;4890819;29;20040;-93
2023/05/05 03:02:14;;;;;;;1.40;1.10;;;;;;;7.67;100.00;100285.94;4899540;29;20115;-93
2023/05/05 03:05:04;;;;;;;0.10;0.10;;;;;;;7.63;100.00;100274.94;4895791;29;20362;-92
2023/05/05 03:07:50;;;;;;;0.00;0.00;;;;;;;7.63;100.00;100290.72;4889285;29;20048;-92
2023/05/05 03:10:19;;;;;;;0.13;0.13;;;;;;;7.59;100.00;100279.72;4884100;29;20047;-92
2023/05/05 03:12:52;;;;;;;0.10;0.10;;;;;;;7.59;100.00;100292.72;4902303;29;20044;-93
2023/05/05 03:15:36;;;;;;;0.45;0.45;;;;;;;7.54;100.00;100291.19;4890952;29;20041;-93
2023/05/05 03:18:04;;;;;;;0.80;0.68;;;;;;;7.47;100.00;100289.28;4886675;29;20135;-93
2023/05/05 03:20:31;;;;;;;0.20;0.20;;;;;;;7.45;100.00;100290.88;4900201;29;20088;-93
2023/05/05 03:23:02;;;;;;;0.25;0.25;;;;;;;7.39;100.00;100295.28;4884204;29;20104;-93
2023/05/05 03:25:44;;;;;;;0.57;0.57;;;;;;;7.35;100.00;100298.09;4893561;29;20454;-92
2023/05/05 03:28:15;;;;;;;0.30;0.30;;;;;;;7.33;100.00;100294.16;4885482;29;20049;-93
2023/05/05 03:30:41;;;;;;;0.95;0.85;;;;;;;7.36;100.00;100310.66;4900135;29;20107;-92
2023/05/05 03:33:10;;;;;;;0.20;0.20;;;;;;;7.22;100.00;100272.19;4885563;29;20048;-92
2023/05/05 03:35:38;;;;;;;0.00;0.00;;;;;;;7.31;100.00;100299.31;4901113;29;20036;-93
2023/05/05 03:38:06;;;;;;;13.63;0.95;;;;;;;7.17;100.00;100288.38;4886005;29;20051;-93
2023/05/05 03:40:32;;;;;;;0.35;0.35;;;;;;;7.14;100.00;100278.97;4897561;29;20123;-93
2023/05/05 03:42:57;;;;;;;1.88;0.75;;;;;;;7.19;100.00;100284.06;4884957;29;20044;-95
2023/05/05 03:45:23;;;;;;;0.32;0.32;;;;;;;7.19;100.00;100281.28;4883347;29;20036;-93
2023/05/05 03:47:49;;;;;;;0.03;0.03;;;;;;;7.27;100.00;100291.06;4900994;29;20049;-92
2023/05/05 03:50:15;;;;;;;1.00;0.77;;;;;;;7.30;100.00;100295.75;4877852;29;20494;-93
2023/05/05 03:52:40;;;;;;;0.40;0.40;;;;;;;7.14;100.00;100270.69;4899310;29;20102;-93
2023/05/05 03:55:07;;;;;;;0.70;0.68;;;;;;;7.27;100.00;100290.28;4883700;29;20490;-93
2023/05/05 03:57:33;;;;;;;0.10;0.10;;;;;;;7.28;100.00;100287.09;4885466;29;20544;-93
2023/05/05 03:59:59;;;;;;;0.55;0.55;;;;;;;7.26;100.00;100278.47;4901012;29;20087;-92
2023/05/05 04:02:25;;;;;;;0.93;0.88;;;;;;;7.36;100.00;100288.59;4908517;29;20475;-93
2023/05/05 04:04:51;;;;;;;1.52;1.20;;;;;;;7.35;100.00;100281.53;4898978;29;20051;-92
2023/05/05 04:07:16;;;;;;;0.45;0.45;;;;;;;7.45;100.00;100288.91;4901055;29;20463;-92
2023/05/05 04:09:45;;;;;;;0.30;0.30;;;;;;;7.51;100.00;100289.25;4884156;29;20044;-92
2023/05/05 04:12:11;;;;;;;0.30;0.30;;;;;;;7.47;100.00;100277.47;4886049;29;20039;-93
2023/05/05 04:14:37;;;;;;;0.30;0.30;;;;;;;7.58;100.00;100288.38;4884662;29;20044;-93
2023/05/05 04:17:03;;;;;;;0.82;0.82;;;;;;;7.58;100.00;100282.88;4883353;29;20036;-93
2023/05/05 04:19:32;;;;;;;0.03;0.03;;;;;;;7.66;100.00;100282.38;4897040;29;20052;-91
2023/05/05 04:21:59;;;;;;;0.63;0.30;;;;;;;7.68;100.00;100281.97;4884016;29;20439;-93
2023/05/05 04:24:26;;;;;;;0.47;0.47;;;;;;;7.80;100.00;100284.22;4878017;29;20070;-93
2023/05/05 04:26:53;;;;;;;0.15;0.15;;;;;;;7.73;100.00;100270.47;4869397;29;20048;-91
2023/05/05 04:29:20;;;;;;;0.90;0.68;;;;;;;7.68;100.00;100254.38;4882435;29;20177;-92
2023/05/05 04:31:45;;;;;;;0.60;0.60;;;;;;;8.00;100.00;100287.91;4900054;29;20068;-92
2023/05/05 04:34:11;;;;;;;0.30;0.30;;;;;;;8.00;100.00;100281.59;4881848;29;20396;-94
2023/05/05 04:36:37;;;;;;;0.52;0.52;;;;;;;8.00;100.00;100265.03;4878732;29;20066;-91
2023/05/05 04:39:05;;;;;;;1.13;0.80;;;;;;;8.15;100.00;100278.25;4880720;29;20491;-91
2023/05/05 04:41:31;;;;;;;0.20;0.20;;;;;;;8.34;100.00;100283.16;4865245;29;20036;-91
2023/05/05 04:43:58;;;;;;;1.10;0.30;;;;;;;8.40;100.00;100278.72;4862489;29;20047;-92
2023/05/05 04:46:24;;;;;;;0.55;0.55;;;;;;;8.60;100.00;100281.59;4862743;29;20048;-92
2023/05/05 04:48:50;;;;;;;0.52;0.52;;;;;;;8.71;100.00;100275.91;4871735;29;20033;-94
2023/05/05 04:51:16;;;;;;;6.75;1.23;;;;;;;8.91;100.00;100296.13;4872717;29;20700;-91
2023/05/05 04:53:42;;;;;;;0.40;0.40;;;;;;;8.94;100.00;100289.75;4876732;29;20060;-92
2023/05/05 04:56:08;;;;;;;0.77;0.47;;;;;;;9.15;100.00;100299.69;4876193;29;20037;-91
2023/05/05 04:58:33;;;;;;;0.10;0.10;;;;;;;9.19;100.00;100283.81;4880187;29;20781;-92
2023/05/05 05:00:59;;;;;;;1.30;1.23;;;;;;;9.44;100.00;100294.44;4895558;29;20058;-90
2023/05/05 05:03:25;;;;;;;0.30;0.30;;;;;;;9.66;100.00;100290.09;4900683;29;20037;-90
2023/05/05 05:05:50;;;;;;;0.43;0.43;;;;;;;9.81;100.00;100296.91;4888173;29;20382;-91
2023/05/05 05:08:16;;;;;;;0.28;0.28;;;;;;;10.01;100.00;100299.69;4893841;29;20070;-90
2023/05/05 05:10:42;;;;;;;1.05;0.82;;;;;;;10.04;100.00;100285.75;4881879;29;20060;-91
2023/05/05 05:13:08;;;;;;;0.55;0.55;;;;;;;10.29;100.00;100305.47;4882498;29;20079;-93
2023/05/05 05:15:36;;;;;;;1.45;0.80;;;;;;;10.51;100.00;100307.78;4877641;29;20046;-94
2023/05/05 05:18:03;;;;;;;1.25;1.15;;;;;;;10.72;100.00;100310.06;4900025;29;20188;-92
2023/05/05 05:20:31;;;;;;;0.22;0.22;;;;;;;10.85;100.00;100313.72;4868315;29;20107;-92
2023/05/05 05:22:57;;;;;;;1.25;1.15;;;;;;;10.94;100.00;100297.25;4857481;29;20171;-91
2023/05/05 05:25:23;;;;;;;4.25;1.35;;;;;;;11.10;100.00;100297.25;4883057;29;20070;-92
2023/05/05 05:27:49;;;;;;;0.05;0.05;;;;;;;11.33;100.00;100298.25;4894390;29;20861;-95
2023/05/05 05:30:16;;;;;;;0.77;0.77;;;;;;;11.54;100.00;100304.06;4864474;29;20037;-94
2023/05/05 05:32:42;;;;;;;1.27;1.05;;;;;;;11.68;100.00;100302.91;4886658;29;20155;-91
2023/05/05 05:35:08;;;;;;;1.27;1.17;;;;;;;11.94;100.00;100318.47;4867167;29;20417;-93
2023/05/05 05:37:34;;;;;;;1.17;0.98;;;;;;;12.17;100.00;100311.13;4884205;29;20075;-91
2023/05/05 05:40:03;;;;;;;0.85;0.75;;;;;;;12.39;100.00;100312.03;4855059;29;20083;-93
2023/05/05 05:42:31;;;;;;;1.25;0.57;;;;;;;12.61;100.00;100307.41;4884031;29;20110;-92
2023/05/05 05:44:57;;;;;;;0.52;0.52;;;;;;;12.88;100.00;100304.16;4890663;29;20052;-92
2023/05/05 05:47:24;;;;;;;1.48;1.38;;;;;;;13.14;100.00;100311.31;4921712;23;20104;-89
2023/05/05 05:50:03;;;;;;;0.65;0.65;;;;;;;13.21;100.00;100282.44;4891852;29;20044;-88
2023/05/05 05:52:30;;;;;;;0.52;0.52;;;;;;;13.49;100.00;100292.63;4894845;29;20047;-88
2023/05/05 05:54:56;;;;;;;1.77;1.67;;;;;;;13.69;100.00;100301.47;4883542;29;20028;-89
2023/05/05 05:57:23;;;;;;;1.17;0.95;;;;;;;13.94;100.00;100312.50;4894869;29;20055;-88
2023/05/05 05:59:49;;;;;;;0.75;0.75;;;;;;;14.16;100.00;100311.72;4880398;29;20408;-89
2023/05/05 06:02:15;;;;;;;1.90;0.73;;;;;;;14.20;100.00;100302.00;4886853;29;20036;-89
2023/05/05 06:04:41;;;;;;;0.60;0.60;;;;;;;14.18;100.00;100278.56;4861472;29;20509;-89
2023/05/05 06:07:08;;;;;;;1.30;1.20;;;;;;;14.42;100.00;100291.63;4895129;29;20051;-89
2023/05/05 06:09:33;;;;;;;1.10;1.00;;;;;;;14.72;100.00;100329.13;4880264;29;20048;-88
2023/05/05 06:12:00;;;;;;;1.10;0.95;;;;;;;14.76;100.00;100293.47;4883881;29;20056;-88
2023/05/05 06:14:26;;;;;;;0.30;0.30;;;;;;;15.16;100.00;100312.25;4915155;29;20052;-90
2023/05/05 06:16:52;;;;;;;3.03;2.13;;;;;;;15.26;100.00;100275.47;4862759;29;20048;-88
2023/05/05 06:19:20;;;;;;;0.30;0.30;;;;;;;15.63;100.00;100304.25;4898389;23;20521;-92
2023/05/05 06:21:53;;;;;;;0.25;0.25;;;;;;;15.92;100.00;100319.81;4856529;29;20184;-92
2023/05/05 06:24:20;;;;;;;0.63;0.63;;;;;;;16.00;100.00;100319.03;4878478;29;20052;-92
2023/05/05 06:26:46;;;;;;;1.25;1.15;;;;;;;16.18;100.00;100321.00;4877724;29;20045;-92
2023/05/05 06:29:11;;;;;;;1.90;1.13;;;;;;;16.40;100.00;100309.63;4861292;29;20483;-92
2023/05/05 06:31:37;;;;;;;1.30;1.20;;;;;;;16.58;100.00;100318.78;4877550;29;20234;-93
2023/05/05 06:34:18;;;;;;;4.80;1.60;;;;;;;16.76;100.00;100315.94;4862384;29;20135;-92
2023/05/05 06:36:44;;;;;;;1.25;1.00;;;;;;;16.84;100.00;100316.34;4868538;29;20045;-92
2023/05/05 06:39:10;;;;;;;0.85;0.50;;;;;;;16.92;100.00;100317.56;4872048;29;20119;-92
2023/05/05 06:41:36;;;;;;;1.75;1.20;;;;;;;17.06;100.00;100318.91;4874372;29;20467;-92
2023/05/05 06:44:01;;;;;;;0.75;0.68;;;;;;;17.33;100.00;100318.75;4859581;29;20048;-93
2023/05/05 06:46:42;;;;;;;0.63;0.63;;;;;;;17.24;100.00;100321.59;4843095;29;20072;-92
2023/05/05 06:49:08;;;;;;;0.63;0.60;;;;;;;17.38;100.00;100320.91;4894678;29;20044;-92
2023/05/05 06:51:34;;;;;;;0.32;0.32;;;;;;;17.55;100.00;100315.66;4856011;29;20049;-92
2023/05/05 06:53:59;;;;;;;1.42;1.17;;;;;;;17.80;100.00;100328.41;4865223;29;20082;-92
2023/05/05 06:56:25;;;;;;;1.25;1.15;;;;;;;18.10;100.00;100322.41;4877814;29;20531;-92
2023/05/05 06:59:05;;;;;;;1.17;0.98;;;;;;;18.18;100.00;100326.38;4894996;29;20041;-92
2023/05/05 07:01:31;;;;;;;0.40;0.40;;;;;;;18.35;100.00;100323.88;4902096;29;20036;-92
2023/05/05 07:03:56;;;;;;;0.57;0.52;;;;;;;18.48;100.00;100321.53;4923295;29;20097;-92
2023/05/05 07:06:22;;;;;;;0.22;0.22;;;;;;;18.62;100.00;100309.56;4875974;29;20048;-92
2023/05/05 07:08:47;;;;;;;1.17;0.90;;;;;;;18.43;100.00;100316.63;4875596;29;20052;-92
2023/05/05 07:11:26;;;;;;;0.77;0.75;;;;;;;18.23;100.00;100313.72;4877447;29;20037;-92
2023/05/05 07:13:53;;;;;;;1.25;0.85;;;;;;;18.33;100.00;100320.00;4879266;29;20040;-92
2023/05/05 07:16:18;;;;;;;1.33;1.05;;;;;;;18.75;100.00;100319.72;4901632;29;20043;-92
2023/05/05 07:18:44;;;;;;;1.27;1.17;;;;;;;18.88;100.00;100315.34;4891538;29;20850;-92
2023/05/05 07:21:09;;;;;;;0.60;0.47;;;;;;;19.02;100.00;100319.38;4903717;29;20512;-91
2023/05/05 07:23:36;;;;;;;0.38;0.38;;;;;;;18.96;96.65;100318.53;4895735;29;20095;-92
2023/05/05 07:26:05;;;;;;;2.33;1.15;;;;;;;18.85;100.00;100295.84;4880407;29;20040;-92
2023/05/05 07:28:31;;;;;;;1.02;0.98;;;;;;;18.93;99.13;100280.91;4895354;29;20055;-92
2023/05/05 07:30:57;;;;;;;0.77;0.77;;;;;;;19.07;96.06;100293.41;4876737;29;20052;-92
2023/05/05 07:33:22;;;;;;;1.30;1.20;;;;;;;18.95;98.45;100308.53;4880715;29;20044;-92
2023/05/05 07:35:48;;;;;;;0.73;0.73;;;;;;;19.21;97.51;100298.19;4896241;29;20059;-92
2023/05/05 07:38:14;;;;;;;0.82;0.40;;;;;;;19.23;96.22;100300.50;4865612;29;20084;-92
2023/05/05 07:40:44;;;;;;;0.30;0.30;;;;;;;19.48;91.23;100317.53;4872958;29;20044;-92
2023/05/05 07:43:11;;;;;;;1.02;0.65;;;;;;;19.44;90.62;100308.53;4896758;29;20048;-94
2023/05/05 07:45:36;;;;;;;0.68;0.68;;;;;;;19.68;86.95;100308.31;4896205;29;20055;-93
2023/05/05 07:48:02;;;;;;;0.47;0.47;;;;;;;19.60;82.87;100300.78;4915173;29;20043;-93
2023/05/05 07:50:28;;;;;;;1.50;1.40;;;;;;;19.75;85.79;100301.47;4897626;29;20048;-92
2023/05/05 07:52:53;;;;;;;0.70;0.63;;;;;;;19.96;86.89;100294.53;4881033;29;20072;-94
2023/05/05 07:57:53;;;;;;;1.58;1.48;;;;;;;20.37;81.71;100310.09;4931731;29;20138;-93
2023/05/05 08:00:19;;;;;;;2.17;1.13;;;;;;;20.07;87.27;100311.56;4884392;29;20123;-92
2023/05/05 08:02:45;;;;;;;0.55;0.55;;;;;;;20.14;89.67;100310.34;4887755;29;20036;-93
2023/05/05 08:05:11;;;;;;;4.22;0.73;;;;;;;20.24;85.23;100297.66;4871043;29;20044;-93
2023/05/05 08:07:49;;;;;;;0.95;0.80;;;;;;;19.87;86.67;100314.41;4896404;23;20095;-94
2023/05/05 08:10:15;;;;;;;0.25;0.25;;;;;;;20.06;88.36;100298.00;4887203;29;20096;-92
2023/05/05 08:12:40;;;;;;;1.48;1.38;;;;;;;20.34;87.96;100307.53;4890969;29;20039;-93
2023/05/05 08:15:06;;;;;;;0.60;0.60;;;;;;;20.31;85.36;100309.28;4900814;29;20495;-93
2023/05/05 08:20:28;;;;;;;0.63;0.63;;;;;;;20.86;85.88;100299.75;4915318;29;20064;-91
2023/05/05 08:22:55;;;;;;;0.47;0.47;;;;;;;21.02;83.82;100304.72;4871174;29;20048;-91
2023/05/05 08:25:20;;;;;;;0.70;0.70;;;;;;;21.32;78.04;100308.78;4881735;29;20040;-92
2023/05/05 08:27:46;;;;;;;0.73;0.73;;;;;;;21.29;78.97;100304.16;4884129;29;20107;-91
2023/05/05 08:30:21;;;;;;;0.50;0.50;;;;;;;21.48;75.03;100300.91;4869537;29;20035;-93
2023/05/05 08:32:46;;;;;;;0.60;0.55;;;;;;;21.53;73.96;100298.09;4899774;29;20134;-92
2023/05/05 08:35:12;;;;;;;0.77;0.77;;;;;;;21.39;78.34;100308.28;4897871;29;20143;-93
2023/05/05 08:37:37;;;;;;;5.20;1.08;;;;;;;21.06;71.02;100310.91;4897416;29;20143;-92
2023/05/05 08:40:04;;;;;;;1.13;0.85;;;;;;;20.99;77.04;100311.34;4873592;29;20146;-92
2023/05/05 08:42:45;;;;;;;1.13;0.63;;;;;;;21.17;77.65;100299.72;4863756;29;20472;-92
2023/05/05 08:45:11;;;;;;;1.50;1.05;;;;;;;21.54;73.05;100308.13;4871335;29;20132;-93
2023/05/05 08:47:37;;;;;;;0.50;0.50;;;;;;;21.89;70.47;100302.09;4875630;29;20087;-92
2023/05/05 08:50:04;;;;;;;0.50;0.50;;;;;;;22.11;67.35;100296.53;4878880;29;20044;-91
2023/05/05 08:53:11;;;;;;;0.80;0.80;;;;;;;22.13;64.82;100291.13;4867863;29;20028;-92
2023/05/05 08:55:42;;;;;;;0.57;0.57;;;;;;;22.46;67.66;100309.41;4904631;29;20489;-93
2023/05/05 08:58:08;;;;;;;0.75;0.75;;;;;;;22.62;61.37;100311.47;4883920;29;20095;-92
2023/05/05 09:03:11;;;;;;;0.38;0.38;;;;;;;22.54;59.61;100293.50;4912217;29;20060;-93
2023/05/05 09:05:37;;;;;;;0.35;0.35;;;;;;;22.55;56.65;100284.50;4883610;29;20048;-92
2023/05/05 09:08:09;;;;;;;1.50;0.93;;;;;;;22.92;54.63;100300.44;4884324;29;20670;-92
2023/05/05 09:10:55;;;;;;;5.30;0.85;;;;;;;22.85;56.18;100289.66;4875214;29;20040;-93
2023/05/05 09:13:20;;;;;;;0.88;0.70;;;;;;;23.03;58.38;100289.88;4896359;29;20083;-92
2023/05/05 09:15:46;;;;;;;1.13;1.02;;;;;;;23.52;55.96;100290.28;4911159;29;20075;-92
2023/05/05 09:18:12;;;;;;;0.50;0.50;;;;;;;23.07;52.23;100283.97;4866869;29;20032;-93
2023/05/05 09:20:38;;;;;;;1.52;1.05;;;;;;;22.99;55.12;100283.72;4881336;29;20410;-93
2023/05/05 09:23:18;;;;;;;0.88;0.88;;;;;;;22.85;55.39;100284.75;4865746;29;20033;-92
2023/05/05 09:26:07;;;;;;;3.20;1.25;;;;;;;23.06;58.31;100283.19;4907236;29;20047;-93
2023/05/05 09:28:33;;;;;;;1.85;1.23;;;;;;;23.24;54.63;100287.53;4934647;29;20062;-93
2023/05/05 09:31:14;;;;;;;0.82;0.82;;;;;;;23.44;55.83;100283.63;4900841;29;20048;-93
2023/05/05 09:33:40;;;;;;;1.30;0.90;;;;;;;23.34;52.80;100265.34;4873336;29;20052;-92
2023/05/05 09:36:05;;;;;;;0.30;0.30;;;;;;;23.29;51.83;100269.00;4894187;29;20539;-93
2023/05/05 09:38:31;;;;;;;0.40;0.40;;;;;;;23.34;52.74;100251.19;4874987;29;20062;-93
2023/05/05 09:40:57;;;;;;;0.70;0.68;;;;;;;22.91;54.59;100279.09;4870598;29;20055;-93
2023/05/05 09:43:50;;;;;;;0.95;0.60;;;;;;;22.94;53.64;100258.25;4875870;29;20031;-93
2023/05/05 09:46:16;;;;;;;1.05;0.63;;;;;;;23.21;49.11;100272.34;4864963;29;20040;-93
2023/05/05 09:48:41;;;;;;;0.00;0.00;;;;;;;23.40;51.11;100263.28;4861850;29;20045;-93
2023/05/05 09:51:07;;;;;;;0.55;0.55;;;;;;;23.46;47.90;100253.50;4896244;29;20492;-92
2023/05/05 09:53:41;;;;;;;0.38;0.38;;;;;;;23.42;49.25;100240.88;4884822;29;20028;-92
2023/05/05 09:56:07;;;;;;;1.25;1.02;;;;;;;23.54;45.51;100254.50;4863922;29;20185;-93
2023/05/05 09:58:33;;;;;;;0.40;0.40;;;;;;;23.62;48.12;100263.19;4865836;29;20768;-93
2023/05/05 10:00:58;;;;;;;1.25;1.15;;;;;;;23.89;48.25;100256.66;4897227;29;20058;-92
2023/05/05 10:03:24;;;;;;;1.30;0.70;;;;;;;24.32;48.43;100261.78;4892643;29;20540;-93
2023/05/05 10:06:03;;;;;;;0.82;0.82;;;;;;;24.33;45.29;100240.66;4901180;29;20046;-92
2023/05/05 10:08:32;;;;;;;0.75;0.75;;;;;;;24.59;44.03;100252.28;4886344;29;20052;-91
2023/05/05 10:11:05;;;;;;;2.00;1.27;;;;;;;24.33;44.94;100249.94;4909922;29;20080;-92
2023/05/05 10:13:30;;;;;;;;;;;;;;;24.49;45.35;100254.69;4889628;29;20136;-92
2023/05/05 10:16:13;;;;;;;0.98;0.88;;;;;;;24.87;45.62;100249.22;4873497;29;20047;-92
2023/05/05 10:18:39;;;;;;;1.90;1.48;;;;;;;24.27;43.46;100245.56;4890972;29;20446;-92
2023/05/05 10:21:05;;;;;;;1.13;0.80;;;;;;;24.07;46.31;100252.38;4855299;29;20435;-92
2023/05/05 10:23:35;;;;;;;0.85;0.82;;;;;;;24.30;45.01;100250.22;4883752;29;20043;-92
2023/05/05 10:26:03;;;;;;;0.90;0.50;;;;;;;24.36;44.43;100253.75;4899052;29;20039;-91
2023/05/05 10:28:36;;;;;;;1.10;0.98;;;;;;;24.18;44.63;100245.94;4893205;29;20099;-92
2023/05/05 10:31:05;;;;;;;1.70;1.60;;;;;;;24.54;45.27;100247.44;4878126;29;20324;-91
2023/05/05 10:33:38;;;;;;;0.85;0.75;;;;;;;24.56;41.35;100236.31;4865428;29;20023;-91
2023/05/05 10:36:06;;;;;;;1.00;0.55;;;;;;;24.90;40.66;100237.56;4875386;29;20045;-92
2023/05/05 10:38:49;;;;;;;0.52;0.52;;;;;;;25.12;44.01;100241.44;4885422;29;20048;-93
2023/05/05 10:41:14;;;;;;;1.23;1.08;;;;;;;25.07;42.50;100238.16;4879884;29;20131;-92
2023/05/05 10:43:41;;;;;;;0.38;0.38;;;;;;;25.42;41.68;100222.25;4901471;29;20707;-92
2023/05/05 10:46:07;;;;;;;0.15;0.15;;;;;;;25.45;40.35;100239.00;4891216;29;20046;-91
2023/05/05 10:51:43;;;;;;;0.93;0.63;;;;;;;24.75;40.78;100222.97;4930453;29;20067;-93
2023/05/05 10:54:32;;;;;;;0.52;0.45;;;;;;;25.03;42.46;100220.63;4896887;29;20047;-92
2023/05/05 10:57:01;;;;;;;0.57;0.57;;;;;;;24.97;40.83;100214.28;4933677;29;20419;-91
2023/05/05 10:59:36;;;;;;;0.82;0.82;;;;;;;24.86;40.25;100205.13;4906513;29;20220;-92
2023/05/05 11:02:27;;;;;;;0.70;0.70;;;;;;;25.05;39.97;100205.94;4895852;29;20047;-94
2023/05/05 11:05:21;;;;;;;0.68;0.68;;;;;;;24.15;42.43;100211.66;4897779;29;20183;-93
2023/05/05 11:08:26;;;;;;;0.28;0.28;;;;;;;24.39;44.34;100207.34;4903931;29;20054;-93
2023/05/05 11:10:51;;;;;;;1.05;0.95;;;;;;;24.56;42.42;100199.44;4909653;29;20043;-92
2023/05/05 11:13:18;;;;;;;0.75;0.75;;;;;;;24.91;40.09;100188.00;4910767;29;20043;-93
2023/05/05 11:15:57;;;;;;;0.88;0.80;;;;;;;25.30;38.95;100190.41;4901432;29;20501;-93
2023/05/05 11:18:39;;;;;;;0.98;0.57;;;;;;;25.15;39.49;100200.66;4911743;29;20036;-93
2023/05/05 11:21:07;;;;;;;0.20;0.20;;;;;;;25.72;40.14;100190.91;4895977;29;20056;-93
2023/05/05 11:23:33;;;;;;;0.30;0.30;;;;;;;25.75;39.22;100170.69;4927382;29;20347;-93
2023/05/05 11:25:59;;;;;;;1.30;1.20;;;;;;;26.08;39.04;100188.53;4924594;29;20043;-92
2023/05/05 11:28:29;;;;;;;1.48;1.38;;;;;;;26.05;38.80;100181.06;4882578;29;20040;-93
2023/05/05 11:30:55;;;;;;;2.58;1.02;;;;;;;26.15;38.40;100191.53;4915018;29;20050;-92
2023/05/05 11:33:30;;;;;;;0.70;0.70;;;;;;;26.10;39.55;100188.75;4933713;29;20035;-94
2023/05/05 11:36:10;;;;;;;0.63;0.50;;;;;;;25.79;37.34;100179.69;4931073;29;20492;-93
2023/05/05 11:39:30;;;;;;;0.50;0.50;;;;;;;25.89;38.14;100185.72;4935867;29;20067;-93
2023/05/05 11:42:22;;;;;;;1.00;0.90;;;;;;;25.88;37.81;100184.22;4873139;29;20122;-93
2023/05/05 11:44:48;;;;;;;0.50;0.45;;;;;;;25.90;36.97;100175.88;4917069;29;20393;-93
2023/05/05 11:47:13;;;;;;;0.52;0.52;;;;;;;25.77;37.70;100178.66;4895476;29;20031;-93